Time;durP1;ratioP1;P1;durP2;ratioP2;P2;SDS_P1;SDS_P2;PMS_P1;PMS_P2;Temp;Humidity;BMP_temperature;BMP_pressure;BME280_temperature;BME280_humidity;BME280_pressure;Samples;Min_cycle;Max_cycle;Signal;HPM_P1;HPM_P2
2023/04/11 00:01:44;;;;;;;16.17;10.02;;;;;;;;;;5031277;28;20063;-65
2023/04/11 00:04:10;;;;;;;18.60;10.43;;;;;;;;;;5050334;28;20037;-65
2023/04/11 00:06:35;;;;;;;16.85;9.57;;;;;;;;;;5050330;28;20040;-65
2023/04/11 00:09:01;;;;;;;13.10;8.45;;;;;;;;;;5043837;28;20029;-64
2023/04/11 00:11:26;;;;;;;13.02;8.23;;;;;;;;;;5031276;28;20025;-63
2023/04/11 00:13:56;;;;;;;17.08;11.05;;;;;;;;;;5032112;28;20564;-71
2023/04/11 00:16:25;;;;;;;12.50;8.13;;;;;;;;;;5049593;28;20029;-63
2023/04/11 00:18:50;;;;;;;19.27;11.95;;;;;;;;;;5050040;28;20475;-74
2023/04/11 00:21:16;;;;;;;16.15;9.15;;;;;;;;;;5049944;28;20114;-66
2023/04/11 00:23:41;;;;;;;12.73;8.00;;;;;;;;;;5050005;28;20467;-73
2023/04/11 00:26:07;;;;;;;11.27;7.82;;;;;;;;;;5050050;28;20025;-71
2023/04/11 00:28:33;;;;;;;17.25;9.85;;;;;;;;;;5049285;28;20381;-72
2023/04/11 00:30:59;;;;;;;14.68;8.93;;;;;;;;;;5049393;28;20075;-70
2023/04/11 00:36:00;;;;;;;15.75;9.25;;;;;;;;;;5152118;22;20134;-70
2023/04/11 00:38:25;;;;;;;17.63;11.73;;;;;;;;;;5109005;28;20027;-73
2023/04/11 00:40:51;;;;;;;15.18;8.45;;;;;;;;;;5110878;28;20068;-70
2023/04/11 00:43:16;;;;;;;14.77;8.43;;;;;;;;;;5110645;28;20508;-73
2023/04/11 00:45:42;;;;;;;14.25;9.40;;;;;;;;;;5111307;28;20047;-69
2023/04/11 00:48:07;;;;;;;19.85;10.23;;;;;;;;;;5111040;28;20478;-71
2023/04/11 00:50:35;;;;;;;13.32;8.18;;;;;;;;;;5111187;28;20038;-66
2023/04/11 00:53:02;;;;;;;17.35;9.50;;;;;;;;;;5110020;28;20164;-66
2023/04/11 00:55:28;;;;;;;17.17;9.60;;;;;;;;;;5109954;28;20024;-71
2023/04/11 00:57:54;;;;;;;20.23;10.68;;;;;;;;;;5111397;28;20113;-63
2023/04/11 01:00:20;;;;;;;12.73;9.75;;;;;;;;;;5109845;28;20496;-66
2023/04/11 01:02:45;;;;;;;16.85;10.23;;;;;;;;;;5111523;28;20122;-66
2023/04/11 01:05:14;;;;;;;10.70;7.10;;;;;;;;;;5110103;28;20027;-68
2023/04/11 01:07:42;;;;;;;12.93;8.82;;;;;;;;;;5110597;28;20081;-63
2023/04/11 01:10:09;;;;;;;16.60;10.52;;;;;;;;;;5109230;28;20027;-64
2023/04/11 01:12:35;;;;;;;12.52;8.18;;;;;;;;;;5110136;28;20034;-69
2023/04/11 01:15:01;;;;;;;12.90;7.18;;;;;;;;;;5109566;28;20030;-67
2023/04/11 01:17:27;;;;;;;18.55;11.05;;;;;;;;;;5091751;28;20023;-63
2023/04/11 01:19:53;;;;;;;11.88;8.13;;;;;;;;;;5110057;28;20043;-70
2023/04/11 01:22:21;;;;;;;16.58;9.27;;;;;;;;;;5109072;28;20027;-66
2023/04/11 01:24:47;;;;;;;16.67;9.18;;;;;;;;;;5109593;28;20027;-66
2023/04/11 01:27:13;;;;;;;12.98;7.63;;;;;;;;;;5109111;28;20107;-71
2023/04/11 01:29:38;;;;;;;15.10;9.60;;;;;;;;;;5109611;28;20038;-63
2023/04/11 01:32:04;;;;;;;18.40;11.77;;;;;;;;;;5109161;28;20078;-66
2023/04/11 01:34:32;;;;;;;12.80;7.22;;;;;;;;;;5108718;28;20059;-67
2023/04/11 01:36:57;;;;;;;16.52;10.30;;;;;;;;;;5109887;28;20477;-63
2023/04/11 01:39:23;;;;;;;14.85;8.90;;;;;;;;;;5109417;28;20027;-67
2023/04/11 01:41:50;;;;;;;14.52;9.32;;;;;;;;;;5091075;28;20499;-63
2023/04/11 01:44:16;;;;;;;10.90;6.65;;;;;;;;;;5108898;28;20164;-64
2023/04/11 01:46:42;;;;;;;14.55;7.43;;;;;;;;;;5109170;28;20042;-64
2023/04/11 01:49:07;;;;;;;9.93;6.70;;;;;;;;;;5108986;28;20194;-64
2023/04/11 01:51:33;;;;;;;16.90;10.75;;;;;;;;;;5109214;28;20032;-71
2023/04/11 01:53:58;;;;;;;15.50;9.10;;;;;;;;;;5108896;28;20073;-63
2023/04/11 01:56:24;;;;;;;19.25;11.60;;;;;;;;;;5109373;28;20027;-70
2023/04/11 01:58:49;;;;;;;11.98;7.38;;;;;;;;;;5109175;28;20028;-63
2023/04/11 02:01:19;;;;;;;17.10;10.77;;;;;;;;;;5108547;28;20058;-67
2023/04/11 02:03:45;;;;;;;11.10;6.75;;;;;;;;;;5109212;28;20127;-66
2023/04/11 02:06:10;;;;;;;13.77;9.60;;;;;;;;;;5108933;28;20106;-64
2023/04/11 02:08:36;;;;;;;13.63;8.95;;;;;;;;;;5108731;28;20736;-71
2023/04/11 02:11:01;;;;;;;14.35;8.70;;;;;;;;;;5108374;28;20028;-63
2023/04/11 02:13:27;;;;;;;17.67;9.48;;;;;;;;;;5109108;28;20076;-67
2023/04/11 02:15:52;;;;;;;16.90;10.50;;;;;;;;;;5108676;28;20026;-63
2023/04/11 02:18:18;;;;;;;16.48;8.95;;;;;;;;;;5108081;28;20741;-63
2023/04/11 02:20:43;;;;;;;13.10;8.20;;;;;;;;;;5108788;28;20023;-65
2023/04/11 02:23:08;;;;;;;20.65;10.13;;;;;;;;;;5108082;28;20027;-69
2023/04/11 02:25:34;;;;;;;11.77;6.40;;;;;;;;;;5108680;28;20035;-65
2023/04/11 02:27:59;;;;;;;16.83;10.90;;;;;;;;;;5108176;28;20032;-63
2023/04/11 02:30:25;;;;;;;14.85;10.23;;;;;;;;;;5108433;28;20030;-64
2023/04/11 02:32:50;;;;;;;16.10;8.07;;;;;;;;;;5108428;28;20040;-64
2023/04/11 02:35:16;;;;;;;17.15;9.68;;;;;;;;;;5107385;28;20040;-63
2023/04/11 02:37:42;;;;;;;15.30;9.43;;;;;;;;;;5108278;28;20021;-64
2023/04/11 02:40:08;;;;;;;16.15;10.25;;;;;;;;;;5107922;28;20032;-63
2023/04/11 02:42:34;;;;;;;15.50;10.02;;;;;;;;;;5107820;28;20050;-68
2023/04/11 02:45:00;;;;;;;13.00;7.72;;;;;;;;;;5107911;28;20377;-70
2023/04/11 02:47:26;;;;;;;15.80;9.60;;;;;;;;;;5108699;28;20019;-71
2023/04/11 02:49:51;;;;;;;17.05;10.30;;;;;;;;;;5107962;28;20042;-65
2023/04/11 02:52:17;;;;;;;14.18;9.75;;;;;;;;;;5107577;28;20039;-62
2023/04/11 02:54:43;;;;;;;16.08;8.50;;;;;;;;;;5107979;28;20023;-65
2023/04/11 02:57:09;;;;;;;14.45;9.40;;;;;;;;;;5107673;28;20035;-70
2023/04/11 02:59:35;;;;;;;10.10;6.53;;;;;;;;;;5107857;28;20032;-64
2023/04/11 03:02:00;;;;;;;12.73;8.00;;;;;;;;;;5107688;28;20023;-71
2023/04/11 03:04:26;;;;;;;19.67;9.77;;;;;;;;;;5108437;28;20052;-66
2023/04/11 03:06:52;;;;;;;14.90;9.90;;;;;;;;;;5108345;28;20029;-67
2023/04/11 03:09:18;;;;;;;15.32;8.65;;;;;;;;;;5107849;28;20434;-71
2023/04/11 03:11:43;;;;;;;15.27;10.13;;;;;;;;;;5108679;28;20079;-63
2023/04/11 03:14:09;;;;;;;14.23;9.18;;;;;;;;;;5107211;28;20028;-69
2023/04/11 03:16:34;;;;;;;16.25;10.13;;;;;;;;;;5107959;28;20030;-69
2023/04/11 03:19:00;;;;;;;12.93;7.20;;;;;;;;;;5107393;28;20027;-63
2023/04/11 03:21:26;;;;;;;17.63;10.57;;;;;;;;;;5108184;28;20382;-64
2023/04/11 03:23:52;;;;;;;11.50;7.00;;;;;;;;;;5106725;28;20110;-66
2023/04/11 03:26:17;;;;;;;18.08;10.10;;;;;;;;;;5107374;28;21388;-63
2023/04/11 03:28:44;;;;;;;14.32;9.20;;;;;;;;;;5107758;28;20080;-63
2023/04/11 03:31:10;;;;;;;16.52;10.32;;;;;;;;;;5107730;28;20716;-65
2023/04/11 03:33:36;;;;;;;12.88;9.23;;;;;;;;;;5106988;28;20027;-64
2023/04/11 03:36:01;;;;;;;15.27;9.77;;;;;;;;;;5106667;28;20146;-62
2023/04/11 03:38:28;;;;;;;15.07;9.38;;;;;;;;;;5107872;28;20142;-62
2023/04/11 03:40:53;;;;;;;14.98;9.32;;;;;;;;;;5108000;28;20031;-61
2023/04/11 03:43:19;;;;;;;11.07;6.93;;;;;;;;;;5106653;28;20039;-63
2023/04/11 03:45:44;;;;;;;16.40;8.90;;;;;;;;;;5107630;28;20020;-62
2023/04/11 03:48:10;;;;;;;16.38;10.38;;;;;;;;;;5106996;28;20019;-62
2023/04/11 03:50:36;;;;;;;15.27;9.40;;;;;;;;;;5107621;28;20050;-63
2023/04/11 03:53:01;;;;;;;17.25;10.60;;;;;;;;;;5107253;28;20589;-67
2023/04/11 03:55:27;;;;;;;15.65;9.23;;;;;;;;;;5107983;28;20034;-65
2023/04/11 03:57:52;;;;;;;17.05;10.57;;;;;;;;;;5107412;28;20080;-63
2023/04/11 04:00:19;;;;;;;13.27;8.60;;;;;;;;;;5107407;28;20038;-63
2023/04/11 04:02:45;;;;;;;16.00;9.95;;;;;;;;;;5107341;28;20028;-66
2023/04/11 04:05:10;;;;;;;16.75;9.77;;;;;;;;;;5107019;28;20030;-70
2023/04/11 04:07:36;;;;;;;16.00;9.32;;;;;;;;;;5107196;28;20032;-72
2023/04/11 04:10:01;;;;;;;16.60;10.25;;;;;;;;;;5107262;28;20040;-66
2023/04/11 04:12:26;;;;;;;14.38;9.82;;;;;;;;;;5107444;28;20505;-63
2023/04/11 04:14:52;;;;;;;15.02;9.70;;;;;;;;;;5107388;28;20481;-69
2023/04/11 04:17:17;;;;;;;16.05;10.65;;;;;;;;;;5106733;28;20390;-67
2023/04/11 04:19:43;;;;;;;15.50;9.00;;;;;;;;;;5107297;28;20023;-67
2023/04/11 04:22:10;;;;;;;16.63;9.27;;;;;;;;;;5106984;28;20088;-73
2023/04/11 04:24:41;;;;;;;14.85;9.32;;;;;;;;;;5107467;28;20032;-63
2023/04/11 04:27:09;;;;;;;15.27;9.70;;;;;;;;;;5106509;28;20130;-64
2023/04/11 04:29:45;;;;;;;17.23;10.57;;;;;;;;;;5106704;28;20246;-63
2023/04/11 04:32:11;;;;;;;16.20;10.20;;;;;;;;;;5106774;28;20027;-67
2023/04/11 04:34:53;;;;;;;13.88;9.30;;;;;;;;;;5107539;28;20135;-65
2023/04/11 04:37:21;;;;;;;15.88;10.40;;;;;;;;;;5110170;28;20551;-67
2023/04/11 04:39:55;;;;;;;14.95;9.07;;;;;;;;;;5110903;28;20031;-64
2023/04/11 04:42:24;;;;;;;12.30;7.38;;;;;;;;;;5110086;28;20030;-69
2023/04/11 04:44:51;;;;;;;16.83;10.50;;;;;;;;;;5110511;28;20075;-65
2023/04/11 04:47:18;;;;;;;17.63;10.10;;;;;;;;;;5110101;28;20123;-66
2023/04/11 04:49:44;;;;;;;15.02;9.40;;;;;;;;;;5110668;28;20031;-63
2023/04/11 04:52:12;;;;;;;14.52;9.98;;;;;;;;;;5110050;28;20166;-63
2023/04/11 04:54:38;;;;;;;15.40;9.48;;;;;;;;;;5110461;28;20491;-62
2023/04/11 04:57:04;;;;;;;15.77;9.77;;;;;;;;;;5110097;28;20389;-69
2023/04/11 04:59:30;;;;;;;15.55;9.35;;;;;;;;;;5110066;28;20042;-62
2023/04/11 05:01:55;;;;;;;15.57;9.57;;;;;;;;;;5110834;28;20032;-63
2023/04/11 05:04:21;;;;;;;12.27;8.07;;;;;;;;;;5109816;28;20036;-62
2023/04/11 05:06:47;;;;;;;13.55;8.80;;;;;;;;;;5110304;28;20032;-65
2023/04/11 05:09:13;;;;;;;14.55;8.90;;;;;;;;;;5109912;28;20378;-67
2023/04/11 05:11:39;;;;;;;15.98;9.15;;;;;;;;;;5109784;28;20104;-66
2023/04/11 05:14:04;;;;;;;14.48;8.93;;;;;;;;;;5109958;28;20055;-68
2023/04/11 05:16:30;;;;;;;14.43;9.13;;;;;;;;;;5109561;28;20031;-63
2023/04/11 05:18:56;;;;;;;13.93;9.23;;;;;;;;;;5110534;28;20034;-65
2023/04/11 05:21:21;;;;;;;13.52;8.55;;;;;;;;;;5109747;28;20467;-68
2023/04/11 05:23:47;;;;;;;14.38;8.88;;;;;;;;;;5091871;28;22132;-62
2023/04/11 05:26:12;;;;;;;13.57;8.40;;;;;;;;;;5109486;28;20035;-65
2023/04/11 05:28:38;;;;;;;14.52;8.73;;;;;;;;;;5109896;28;20104;-64
2023/04/11 05:31:04;;;;;;;14.45;8.38;;;;;;;;;;5109321;28;20039;-62
2023/04/11 05:33:30;;;;;;;14.50;8.93;;;;;;;;;;5109863;28;20034;-62
2023/04/11 05:35:55;;;;;;;15.02;8.40;;;;;;;;;;5109592;28;20054;-62
2023/04/11 05:38:21;;;;;;;10.80;7.25;;;;;;;;;;5109012;28;20023;-69
2023/04/11 05:40:46;;;;;;;9.30;6.93;;;;;;;;;;5109410;28;20058;-62
2023/04/11 05:43:13;;;;;;;14.35;9.30;;;;;;;;;;5108986;28;20032;-68
2023/04/11 05:45:46;;;;;;;13.23;7.38;;;;;;;;;;5108728;28;20024;-62
2023/04/11 05:48:16;;;;;;;13.73;7.32;;;;;;;;;;5108827;28;20520;-67
2023/04/11 05:50:41;;;;;;;17.33;8.15;;;;;;;;;;5109611;28;20123;-68
2023/04/11 05:53:07;;;;;;;13.13;7.78;;;;;;;;;;5108443;28;20106;-63
2023/04/11 05:55:33;;;;;;;11.20;7.78;;;;;;;;;;5109509;28;20111;-66
2023/04/11 05:57:58;;;;;;;13.18;7.80;;;;;;;;;;5109183;28;20031;-63
2023/04/11 06:00:25;;;;;;;11.85;7.57;;;;;;;;;;5109732;28;20035;-66
2023/04/11 06:02:51;;;;;;;12.90;8.50;;;;;;;;;;5109203;28;20363;-62
2023/04/11 06:05:17;;;;;;;12.38;7.95;;;;;;;;;;5090392;28;20062;-63
2023/04/11 06:07:43;;;;;;;12.85;7.93;;;;;;;;;;5108591;28;20481;-68
2023/04/11 06:10:09;;;;;;;13.48;8.38;;;;;;;;;;5108669;28;20072;-63
2023/04/11 06:12:35;;;;;;;10.88;7.63;;;;;;;;;;5108679;28;20043;-62
2023/04/11 06:15:01;;;;;;;12.23;7.30;;;;;;;;;;5108446;28;20032;-62
2023/04/11 06:17:27;;;;;;;14.02;8.10;;;;;;;;;;5109158;28;20035;-63
2023/04/11 06:19:52;;;;;;;13.60;8.05;;;;;;;;;;5108952;28;20382;-63
2023/04/11 06:22:18;;;;;;;11.60;7.60;;;;;;;;;;5108114;28;20067;-64
2023/04/11 06:24:46;;;;;;;12.25;6.80;;;;;;;;;;5108736;28;20385;-66
2023/04/11 06:27:12;;;;;;;12.30;7.47;;;;;;;;;;5090087;28;20020;-62
2023/04/11 06:29:39;;;;;;;14.63;7.30;;;;;;;;;;5108580;28;20047;-67
2023/04/11 06:32:05;;;;;;;12.02;7.07;;;;;;;;;;5109093;28;20477;-66
2023/04/11 06:34:31;;;;;;;11.63;7.50;;;;;;;;;;5108379;28;20115;-69
2023/04/11 06:36:57;;;;;;;11.27;7.70;;;;;;;;;;5108313;28;20156;-62
2023/04/11 06:39:22;;;;;;;11.50;7.68;;;;;;;;;;5108294;28;20030;-66
2023/04/11 06:41:48;;;;;;;12.40;7.85;;;;;;;;;;5108542;28;20392;-70
2023/04/11 06:44:13;;;;;;;11.48;7.47;;;;;;;;;;5107948;28;20536;-63
2023/04/11 06:46:39;;;;;;;11.68;7.88;;;;;;;;;;5090049;28;20543;-63
2023/04/11 06:49:06;;;;;;;13.55;8.35;;;;;;;;;;5108566;28;20020;-68
2023/04/11 06:51:32;;;;;;;12.93;8.48;;;;;;;;;;5107620;28;20118;-63
2023/04/11 06:53:58;;;;;;;14.23;7.78;;;;;;;;;;5108862;28;20165;-68
2023/04/11 06:56:23;;;;;;;12.63;8.27;;;;;;;;;;5108403;28;20115;-66
2023/04/11 06:58:49;;;;;;;12.10;7.85;;;;;;;;;;5108332;28;20111;-63
2023/04/11 07:01:15;;;;;;;11.57;7.75;;;;;;;;;;5107541;28;20027;-63
2023/04/11 07:03:40;;;;;;;13.27;8.43;;;;;;;;;;5105023;28;20035;-69
2023/04/11 07:06:08;;;;;;;15.25;8.55;;;;;;;;;;5108351;28;20034;-64
2023/04/11 07:08:34;;;;;;;10.75;7.32;;;;;;;;;;5108735;28;20023;-69
2023/04/11 07:10:59;;;;;;;12.43;8.15;;;;;;;;;;5108735;28;20032;-63
2023/04/11 07:13:25;;;;;;;12.70;8.23;;;;;;;;;;5109301;28;20023;-65
2023/04/11 07:15:50;;;;;;;12.93;9.43;;;;;;;;;;5108265;28;20098;-64
2023/04/11 07:18:16;;;;;;;11.98;7.82;;;;;;;;;;5108566;28;20050;-67
2023/04/11 07:20:41;;;;;;;14.82;7.82;;;;;;;;;;5108750;28;20051;-67
2023/04/11 07:23:07;;;;;;;13.68;8.70;;;;;;;;;;5108229;28;20118;-71
2023/04/11 07:25:32;;;;;;;14.70;8.82;;;;;;;;;;5108595;28;20024;-74
2023/04/11 07:28:01;;;;;;;15.50;9.30;;;;;;;;;;5108442;28;20031;-67
2023/04/11 07:30:27;;;;;;;14.75;9.55;;;;;;;;;;5107886;28;20081;-64
2023/04/11 07:32:52;;;;;;;16.50;10.15;;;;;;;;;;5108588;28;20440;-69
2023/04/11 07:35:18;;;;;;;16.10;9.15;;;;;;;;;;5107395;28;20135;-66
2023/04/11 07:37:44;;;;;;;15.73;8.93;;;;;;;;;;5108842;28;20066;-72
2023/04/11 07:40:10;;;;;;;13.27;9.00;;;;;;;;;;5108239;28;20028;-70
2023/04/11 07:42:36;;;;;;;14.88;9.68;;;;;;;;;;5108301;28;20036;-66
2023/04/11 07:45:02;;;;;;;15.80;9.85;;;;;;;;;;5108060;28;20583;-65
2023/04/11 07:47:27;;;;;;;15.45;8.93;;;;;;;;;;5108422;28;20023;-65
2023/04/11 07:49:52;;;;;;;15.52;9.05;;;;;;;;;;5108411;28;20038;-73
2023/04/11 07:52:18;;;;;;;16.85;10.88;;;;;;;;;;5088999;28;20067;-67
2023/04/11 07:54:43;;;;;;;18.92;11.30;;;;;;;;;;5108436;28;20042;-65
2023/04/11 07:57:09;;;;;;;18.88;12.13;;;;;;;;;;5089676;28;20038;-63
2023/04/11 07:59:34;;;;;;;18.88;9.98;;;;;;;;;;5108178;28;20051;-72
2023/04/11 08:02:00;;;;;;;17.20;9.70;;;;;;;;;;5107749;28;20384;-73
2023/04/11 08:04:31;;;;;;;15.70;10.43;;;;;;;;;;5108150;28;20031;-63
2023/04/11 08:06:57;;;;;;;15.25;9.90;;;;;;;;;;5106741;28;20063;-67
2023/04/11 08:09:22;;;;;;;14.48;9.43;;;;;;;;;;5090868;28;20074;-66
2023/04/11 08:11:48;;;;;;;17.15;9.70;;;;;;;;;;5111787;28;21208;-64
2023/04/11 08:14:13;;;;;;;18.05;11.02;;;;;;;;;;5111783;28;20034;-72
2023/04/11 08:16:38;;;;;;;18.77;11.00;;;;;;;;;;5111747;28;20031;-65
2023/04/11 08:19:04;;;;;;;20.67;10.52;;;;;;;;;;5111179;28;20386;-73
2023/04/11 08:21:30;;;;;;;21.02;11.38;;;;;;;;;;5111889;28;20501;-68
2023/04/11 08:23:55;;;;;;;17.52;10.52;;;;;;;;;;5112081;28;20055;-65
2023/04/11 08:26:21;;;;;;;19.10;11.80;;;;;;;;;;5111378;28;20441;-70
2023/04/11 08:28:46;;;;;;;15.32;10.32;;;;;;;;;;5111916;28;20031;-63
2023/04/11 08:31:12;;;;;;;16.90;10.73;;;;;;;;;;5111508;28;20481;-70
2023/04/11 08:33:38;;;;;;;16.50;10.07;;;;;;;;;;5111313;28;20474;-65
2023/04/11 08:36:08;;;;;;;18.15;10.93;;;;;;;;;;5110523;28;20050;-62
2023/04/11 08:38:34;;;;;;;21.63;12.07;;;;;;;;;;5111620;28;20473;-64
2023/04/11 08:40:59;;;;;;;21.55;10.40;;;;;;;;;;5111107;28;20042;-63
2023/04/11 08:43:25;;;;;;;19.52;11.02;;;;;;;;;;5112029;28;20024;-67
2023/04/11 08:45:51;;;;;;;18.25;10.50;;;;;;;;;;5111647;28;20415;-68
2023/04/11 08:48:18;;;;;;;18.40;10.43;;;;;;;;;;5111004;28;20424;-63
2023/04/11 08:50:43;;;;;;;17.15;10.65;;;;;;;;;;5111879;28;20028;-68
2023/04/11 08:53:09;;;;;;;18.38;11.20;;;;;;;;;;5111007;28;20459;-69
2023/04/11 08:55:46;;;;;;;16.63;10.60;;;;;;;;;;5111653;28;20382;-66
2023/04/11 08:58:11;;;;;;;16.90;10.55;;;;;;;;;;5110691;28;20504;-64
2023/04/11 09:00:37;;;;;;;17.70;11.40;;;;;;;;;;5110901;28;20036;-68
2023/04/11 09:03:05;;;;;;;19.58;11.68;;;;;;;;;;5110425;28;20027;-66
2023/04/11 09:05:38;;;;;;;17.85;11.77;;;;;;;;;;5110946;28;20028;-68
2023/04/11 09:08:06;;;;;;;17.83;11.60;;;;;;;;;;5111153;28;20482;-66
2023/04/11 09:10:32;;;;;;;19.42;11.27;;;;;;;;;;5110176;28;20072;-66
2023/04/11 09:12:59;;;;;;;18.17;11.25;;;;;;;;;;5111328;28;20110;-65
2023/04/11 09:15:30;;;;;;;18.40;11.35;;;;;;;;;;5111466;28;20020;-67
2023/04/11 09:17:56;;;;;;;21.40;11.98;;;;;;;;;;5110830;28;20080;-67
2023/04/11 09:20:29;;;;;;;17.25;10.98;;;;;;;;;;5109655;28;20027;-64
2023/04/11 09:22:56;;;;;;;13.38;8.25;;;;;;;;;;5110891;28;20032;-65
2023/04/11 09:25:22;;;;;;;15.23;9.93;;;;;;;;;;5110915;28;20020;-63
2023/04/11 09:27:48;;;;;;;16.25;10.30;;;;;;;;;;5110232;28;20520;-65
2023/04/11 09:30:32;;;;;;;16.48;10.70;;;;;;;;;;5110177;28;20027;-62
2023/04/11 09:32:58;;;;;;;17.80;10.50;;;;;;;;;;5110483;28;20023;-65
2023/04/11 09:35:27;;;;;;;17.08;9.68;;;;;;;;;;5109503;28;20051;-66
2023/04/11 09:37:57;;;;;;;15.15;9.70;;;;;;;;;;5110826;28;20031;-66
2023/04/11 09:40:32;;;;;;;16.20;9.93;;;;;;;;;;5110252;28;20148;-69
2023/04/11 09:43:01;;;;;;;17.17;10.55;;;;;;;;;;5111047;28;20020;-64
2023/04/11 09:45:28;;;;;;;16.83;10.80;;;;;;;;;;5110669;28;20367;-65
2023/04/11 09:47:55;;;;;;;15.25;10.68;;;;;;;;;;5110288;28;20027;-66
2023/04/11 09:50:21;;;;;;;16.63;10.18;;;;;;;;;;5110218;28;20047;-65
2023/04/11 09:52:47;;;;;;;19.15;11.23;;;;;;;;;;5110021;28;20520;-68
2023/04/11 09:55:19;;;;;;;20.38;12.23;;;;;;;;;;5110209;28;20027;-62
2023/04/11 09:57:47;;;;;;;20.52;12.07;;;;;;;;;;5109177;28;20024;-62
2023/04/11 10:00:17;;;;;;;18.85;12.27;;;;;;;;;;5110162;28;20027;-67
2023/04/11 10:02:43;;;;;;;;;;;;;;;;;;5110677;28;20363;-65
2023/04/11 10:05:09;;;;;;;17.65;10.10;;;;;;;;;;5109562;28;19919;-68
2023/04/11 10:07:45;;;;;;;17.55;11.57;;;;;;;;;;5091547;28;20047;-62
2023/04/11 10:10:21;;;;;;;18.92;10.98;;;;;;;;;;5110462;28;20051;-64
2023/04/11 10:12:48;;;;;;;17.65;10.60;;;;;;;;;;5109921;28;20028;-62
2023/04/11 10:15:14;;;;;;;15.35;10.20;;;;;;;;;;5109270;28;20490;-65
2023/04/11 10:17:40;;;;;;;17.38;11.88;;;;;;;;;;5109547;28;20107;-63
2023/04/11 10:20:30;;;;;;;15.27;10.75;;;;;;;;;;5109423;28;20119;-63
2023/04/11 10:23:00;;;;;;;17.23;9.98;;;;;;;;;;5110060;28;20032;-65
2023/04/11 10:25:26;;;;;;;18.52;10.85;;;;;;;;;;5108204;28;20030;-66
2023/04/11 10:28:05;;;;;;;16.42;10.90;;;;;;;;;;5109623;28;20378;-65
2023/04/11 10:30:39;;;;;;;15.50;10.20;;;;;;;;;;5107818;28;20140;-64
2023/04/11 10:33:09;;;;;;;15.50;9.05;;;;;;;;;;5108553;28;20393;-63
2023/04/11 10:35:35;;;;;;;;;;;;;;;;;;5109125;28;20039;-65
2023/04/11 10:38:00;;;;;;;15.18;8.55;;;;;;;;;;5108973;28;20310;-62
2023/04/11 10:40:26;;;;;;;13.73;8.57;;;;;;;;;;5109840;28;20114;-66
2023/04/11 10:42:51;;;;;;;13.48;8.48;;;;;;;;;;5109310;28;20110;-64
2023/04/11 10:45:22;;;;;;;15.15;9.55;;;;;;;;;;5108835;28;20036;-64
2023/04/11 10:47:50;;;;;;;12.88;8.35;;;;;;;;;;5108709;28;20032;-62
2023/04/11 10:50:25;;;;;;;13.85;8.48;;;;;;;;;;5090459;28;20031;-64
2023/04/11 10:52:54;;;;;;;12.20;7.65;;;;;;;;;;5109374;28;20100;-69
2023/04/11 10:55:20;;;;;;;10.85;7.97;;;;;;;;;;5108753;28;20028;-71
2023/04/11 10:58:07;;;;;;;15.07;8.13;;;;;;;;;;5108651;28;20023;-65
2023/04/11 11:00:51;;;;;;;10.85;6.63;;;;;;;;;;5108999;28;20020;-64
2023/04/11 11:03:21;;;;;;;11.13;6.55;;;;;;;;;;5090210;28;20141;-64
2023/04/11 11:06:05;;;;;;;9.55;5.70;;;;;;;;;;5108247;28;20032;-64
2023/04/11 11:08:41;;;;;;;9.80;5.30;;;;;;;;;;5108260;28;20023;-64
2023/04/11 11:11:09;;;;;;;10.25;5.47;;;;;;;;;;5108591;28;20093;-68
2023/04/11 11:13:42;;;;;;;8.18;5.20;;;;;;;;;;5108443;28;20012;-66
2023/04/11 11:16:09;;;;;;;7.30;5.03;;;;;;;;;;5108410;28;20027;-64
2023/04/11 11:18:37;;;;;;;7.95;4.72;;;;;;;;;;5108536;28;20054;-64
2023/04/11 11:21:03;;;;;;;9.55;4.78;;;;;;;;;;5108236;28;20023;-65
2023/04/11 11:23:28;;;;;;;8.77;4.70;;;;;;;;;;5108585;28;20390;-70
2023/04/11 11:25:55;;;;;;;7.05;4.40;;;;;;;;;;5088750;28;20043;-67
2023/04/11 11:28:21;;;;;;;7.97;4.35;;;;;;;;;;5108252;28;20046;-66
2023/04/11 11:30:55;;;;;;;7.93;4.90;;;;;;;;;;5108440;28;20040;-65
2023/04/11 11:33:25;;;;;;;10.95;4.80;;;;;;;;;;5107974;28;20023;-65
2023/04/11 11:35:52;;;;;;;7.38;4.45;;;;;;;;;;5107508;28;20120;-62
2023/04/11 11:38:19;;;;;;;7.30;4.55;;;;;;;;;;5108009;28;21228;-63
2023/04/11 11:40:47;;;;;;;11.80;5.38;;;;;;;;;;5108888;28;20389;-63
2023/04/11 11:43:12;;;;;;;10.00;4.57;;;;;;;;;;5108169;28;20032;-65
2023/04/11 11:45:38;;;;;;;7.38;4.45;;;;;;;;;;5111148;28;20031;-65
2023/04/11 11:48:04;;;;;;;6.97;4.50;;;;;;;;;;5112155;28;20076;-69
2023/04/11 11:50:31;;;;;;;9.57;4.22;;;;;;;;;;5112166;28;20077;-68
2023/04/11 11:53:15;;;;;;;7.40;3.80;;;;;;;;;;5113103;28;20039;-67
2023/04/11 11:55:42;;;;;;;6.60;3.28;;;;;;;;;;5112186;28;20020;-68
2023/04/11 11:58:08;;;;;;;8.02;3.80;;;;;;;;;;5112015;28;20031;-68
2023/04/11 12:00:46;;;;;;;5.47;3.28;;;;;;;;;;5112316;28;20509;-63
2023/04/11 12:03:15;;;;;;;9.13;3.85;;;;;;;;;;5111913;28;20063;-62
2023/04/11 12:05:42;;;;;;;5.00;2.90;;;;;;;;;;5112036;28;20020;-66
2023/04/11 12:08:07;;;;;;;5.55;2.88;;;;;;;;;;5110470;28;20481;-63
2023/04/11 12:10:39;;;;;;;5.78;3.00;;;;;;;;;;5111362;28;20027;-67
2023/04/11 12:13:22;;;;;;;7.80;3.05;;;;;;;;;;5116553;28;20118;-62
2023/04/11 12:15:56;;;;;;;5.05;2.63;;;;;;;;;;5115998;28;20028;-66
2023/04/11 12:18:27;;;;;;;7.05;2.90;;;;;;;;;;5116352;28;20128;-65
2023/04/11 12:20:53;;;;;;;6.35;2.58;;;;;;;;;;5116208;28;20028;-65
2023/04/11 12:23:18;;;;;;;5.35;2.20;;;;;;;;;;5115961;28;20031;-65
2023/04/11 12:25:45;;;;;;;4.25;2.20;;;;;;;;;;5115536;28;20028;-68
2023/04/11 12:28:11;;;;;;;5.43;2.47;;;;;;;;;;5116079;28;20028;-66
2023/04/11 12:30:36;;;;;;;6.90;2.47;;;;;;;;;;5116120;28;20549;-62
2023/04/11 12:33:02;;;;;;;7.97;2.63;;;;;;;;;;5115914;28;20106;-63
2023/04/11 12:35:28;;;;;;;7.70;2.50;;;;;;;;;;5115479;28;20517;-64
2023/04/11 12:37:54;;;;;;;7.50;2.10;;;;;;;;;;5115248;28;20039;-62
2023/04/11 12:40:20;;;;;;;3.60;1.75;;;;;;;;;;5115584;28;20027;-63
2023/04/11 12:42:47;;;;;;;4.82;1.77;;;;;;;;;;5115520;28;20385;-65
2023/04/11 12:45:13;;;;;;;7.65;1.90;;;;;;;;;;5115628;28;20020;-63
2023/04/11 12:47:39;;;;;;;6.70;2.15;;;;;;;;;;5097079;28;20533;-62
2023/04/11 12:50:07;;;;;;;9.25;3.15;;;;;;;;;;5115773;28;20130;-63
2023/04/11 12:52:33;;;;;;;7.30;2.17;;;;;;;;;;5115244;28;20074;-62
2023/04/11 12:54:59;;;;;;;8.32;2.28;;;;;;;;;;5114463;28;20016;-64
2023/04/11 12:57:24;;;;;;;6.82;1.77;;;;;;;;;;5115651;28;20045;-66
2023/04/11 12:59:51;;;;;;;5.28;1.88;;;;;;;;;;5115219;28;20462;-66
2023/04/11 13:02:18;;;;;;;4.45;1.05;;;;;;;;;;5115125;28;20028;-66
2023/04/11 13:04:43;;;;;;;2.63;0.90;;;;;;;;;;5115156;28;20082;-65
2023/04/11 13:07:08;;;;;;;2.78;0.90;;;;;;;;;;5115291;28;20047;-62
2023/04/11 13:09:34;;;;;;;2.55;0.80;;;;;;;;;;5114367;28;20031;-64
2023/04/11 13:12:03;;;;;;;1.65;0.93;;;;;;;;;;5115089;28;20039;-66
2023/04/11 13:14:29;;;;;;;4.07;1.17;;;;;;;;;;5114962;28;20038;-66
2023/04/11 13:16:54;;;;;;;3.33;1.05;;;;;;;;;;5114822;28;20020;-65
2023/04/11 13:19:21;;;;;;;3.50;1.17;;;;;;;;;;5114775;28;20028;-62
2023/04/11 13:21:46;;;;;;;1.58;0.80;;;;;;;;;;5114646;28;20488;-64
2023/04/11 13:24:12;;;;;;;2.42;1.10;;;;;;;;;;5125946;27;20031;-67
2023/04/11 13:26:38;;;;;;;0.98;0.85;;;;;;;;;;5114888;28;20038;-62
2023/04/11 13:29:04;;;;;;;2.60;0.90;;;;;;;;;;5114586;28;20024;-65
2023/04/11 13:31:29;;;;;;;2.42;1.20;;;;;;;;;;5114826;28;20505;-70
2023/04/11 13:33:55;;;;;;;3.03;1.20;;;;;;;;;;5114214;28;20023;-62
2023/04/11 13:36:21;;;;;;;2.20;1.00;;;;;;;;;;5102301;28;20115;-62
2023/04/11 13:38:49;;;;;;;2.63;1.20;;;;;;;;;;5094404;28;20063;-63
2023/04/11 13:41:15;;;;;;;2.95;1.42;;;;;;;;;;5094018;28;20454;-62
2023/04/11 13:43:40;;;;;;;5.00;1.13;;;;;;;;;;5093786;28;20117;-62
2023/04/11 13:46:06;;;;;;;2.15;1.33;;;;;;;;;;5094241;28;20046;-62
2023/04/11 13:48:31;;;;;;;1.70;1.00;;;;;;;;;;5094069;28;20020;-63
2023/04/11 13:50:57;;;;;;;4.47;1.60;;;;;;;;;;5094124;28;20027;-62
2023/04/11 13:53:23;;;;;;;3.78;1.38;;;;;;;;;;5093760;28;20024;-65
2023/04/11 13:55:49;;;;;;;7.82;2.35;;;;;;;;;;5093644;28;20024;-63
2023/04/11 13:58:15;;;;;;;4.55;1.23;;;;;;;;;;5093872;28;20474;-63
2023/04/11 14:00:41;;;;;;;4.25;1.20;;;;;;;;;;5093883;28;20032;-62
2023/04/11 14:03:06;;;;;;;3.63;2.20;;;;;;;;;;5093649;28;20024;-68
2023/04/11 14:05:34;;;;;;;12.75;7.65;;;;;;;;;;5108354;28;20016;-63
2023/04/11 14:08:00;;;;;;;3.67;1.20;;;;;;;;;;5112650;28;20476;-64
2023/04/11 14:10:25;;;;;;;1.35;1.02;;;;;;;;;;5113742;28;20114;-70
2023/04/11 14:12:51;;;;;;;1.42;1.00;;;;;;;;;;5114087;28;20028;-67
2023/04/11 14:15:17;;;;;;;4.63;1.92;;;;;;;;;;5113906;28;20012;-63
2023/04/11 14:17:44;;;;;;;3.15;1.70;;;;;;;;;;5113494;28;20070;-71
2023/04/11 14:20:10;;;;;;;3.35;2.20;;;;;;;;;;5113865;28;20374;-62
2023/04/11 14:22:36;;;;;;;3.53;1.70;;;;;;;;;;5113625;28;20035;-62
2023/04/11 14:25:01;;;;;;;4.28;1.30;;;;;;;;;;5113722;28;20019;-62
2023/04/11 14:27:27;;;;;;;3.30;1.25;;;;;;;;;;5113790;28;20150;-67
2023/04/11 14:29:52;;;;;;;3.90;1.55;;;;;;;;;;5113265;28;20126;-62
2023/04/11 14:32:18;;;;;;;4.88;2.03;;;;;;;;;;5113506;28;20020;-62